createdAt,value
2018-12-29T00:01:39.093Z,98830.52
2018-12-29T00:04:09.083Z,98832.91
2018-12-29T00:06:37.358Z,98829.41
2018-12-29T00:09:06.436Z,98837.92
2018-12-29T00:11:34.726Z,98844.50
2018-12-29T00:14:02.993Z,98841.73
2018-12-29T00:16:31.355Z,98845.31
2018-12-29T00:18:59.601Z,98853.95
2018-12-29T00:21:27.931Z,98856.63
2018-12-29T00:23:56.263Z,98855.23
2018-12-29T00:26:24.506Z,98863.05
2018-12-29T00:28:55.483Z,98869.38
2018-12-29T00:31:29.318Z,98867.74
2018-12-29T00:33:57.603Z,98872.48
2018-12-29T00:36:25.935Z,98871.98
2018-12-29T00:38:54.191Z,98866.22
2018-12-29T00:41:22.641Z,98865.59
2018-12-29T00:43:51.054Z,98865.66
2018-12-29T00:46:22.132Z,98865.30
2018-12-29T00:48:50.525Z,98867.97
2018-12-29T00:51:21.325Z,98873.67
2018-12-29T00:53:49.582Z,98874.41
2018-12-29T00:56:17.991Z,98883.69
2018-12-29T00:58:46.275Z,98885.63
2018-12-29T01:01:14.555Z,98888.30
2018-12-29T01:03:42.876Z,98892.53
2018-12-29T01:06:11.267Z,98899.95
2018-12-29T01:08:39.515Z,98902.95
2018-12-29T01:11:07.853Z,98908.80
2018-12-29T01:13:36.191Z,98918.80
2018-12-29T01:16:04.468Z,98927.25
2018-12-29T01:18:32.760Z,98929.19
2018-12-29T01:21:01.007Z,98924.94
2018-12-29T01:23:29.280Z,98923.34
2018-12-29T01:25:57.563Z,98921.91
2018-12-29T01:28:28.010Z,98929.11
2018-12-29T01:30:57.976Z,98927.13
2018-12-29T01:33:26.379Z,98922.73
2018-12-29T01:35:54.624Z,98923.96
2018-12-29T01:38:22.907Z,98922.19
2018-12-29T01:40:51.227Z,98919.02
2018-12-29T01:43:19.615Z,98916.22
2018-12-29T01:45:47.951Z,98921.23
2018-12-29T01:48:16.236Z,98925.88
2018-12-29T01:50:44.511Z,98932.14
2018-12-29T01:53:12.816Z,98930.00
2018-12-29T01:55:41.077Z,98923.08
2018-12-29T01:58:09.444Z,98932.39
2018-12-29T02:00:37.790Z,98936.30
2018-12-29T02:03:12.101Z,98926.22
2018-12-29T02:05:40.410Z,98929.05
2018-12-29T02:08:08.744Z,98933.79
2018-12-29T02:10:37.043Z,98933.79
2018-12-29T02:13:05.329Z,98932.97
2018-12-29T02:15:33.669Z,98940.17
2018-12-29T02:18:01.930Z,98950.18
2018-12-29T02:20:30.219Z,98952.37
2018-12-29T02:22:58.460Z,98956.77
2018-12-29T02:25:26.766Z,98959.73
2018-12-29T02:27:55.113Z,98962.86
2018-12-29T02:30:23.369Z,98951.01
2018-12-29T02:32:51.771Z,98949.77
2018-12-29T02:35:24.785Z,98951.42
2018-12-29T02:37:53.048Z,98956.90
2018-12-29T02:40:21.339Z,98950.59
2018-12-29T02:42:49.639Z,98948.83
2018-12-29T02:45:18.122Z,98944.09
2018-12-29T02:47:46.424Z,98946.07
2018-12-29T02:50:14.724Z,98938.25
2018-12-29T02:52:44.859Z,98934.87
2018-12-29T02:55:13.222Z,98931.88
2018-12-29T02:57:41.508Z,98933.64
2018-12-29T03:00:09.866Z,98936.48
2018-12-29T03:02:38.130Z,98924.26
2018-12-29T03:05:06.399Z,98928.09
2018-12-29T03:07:34.828Z,98941.22
2018-12-29T03:10:03.155Z,98934.55
2018-12-29T03:12:33.171Z,98929.95
2018-12-29T03:15:01.458Z,98926.23
2018-12-29T03:17:29.706Z,98908.55
2018-12-29T03:19:58.153Z,98905.42
2018-12-29T03:22:26.438Z,98906.28
2018-12-29T03:24:54.798Z,98915.95
2018-12-29T03:27:23.130Z,98912.00
2018-12-29T03:29:51.436Z,98914.52
2018-12-29T03:32:19.699Z,98916.77
2018-12-29T03:34:47.942Z,98915.70
2018-12-29T03:37:16.291Z,98909.98
2018-12-29T03:39:44.653Z,98911.42
2018-12-29T03:42:12.922Z,98908.70
2018-12-29T03:44:41.273Z,98905.00
2018-12-29T03:47:09.729Z,98896.60
2018-12-29T03:49:38.115Z,98893.27
2018-12-29T03:52:06.369Z,98896.97
2018-12-29T03:54:34.720Z,98900.47
2018-12-29T03:57:02.965Z,98899.98
2018-12-29T03:59:31.372Z,98896.36
2018-12-29T04:01:59.723Z,98898.53
2018-12-29T04:04:27.994Z,98233.02
2018-12-29T04:06:56.251Z,98890.39
2018-12-29T04:09:34.511Z,98887.72
2018-12-29T04:12:08.794Z,98893.52
2018-12-29T04:14:37.055Z,98897.63
2018-12-29T04:17:05.342Z,98902.37
2018-12-29T04:19:33.661Z,98901.95
2018-12-29T04:22:01.988Z,98891.01
2018-12-29T04:24:30.343Z,98892.25
2018-12-29T04:26:58.622Z,98903.89
2018-12-29T04:29:26.887Z,98908.95
2018-12-29T04:31:55.154Z,98911.30
2018-12-29T04:34:23.454Z,98922.20
2018-12-29T04:36:51.749Z,98928.91
2018-12-29T04:39:20.057Z,98930.36
2018-12-29T04:41:48.296Z,98943.94
2018-12-29T04:44:16.638Z,98932.16
2018-12-29T04:46:44.950Z,98943.60
2018-12-29T04:49:13.203Z,98954.43
2018-12-29T04:51:41.476Z,98956.44
2018-12-29T04:54:09.771Z,98960.15
2018-12-29T04:56:38.029Z,98937.92
2018-12-29T04:59:06.327Z,98931.80
2018-12-29T05:01:34.577Z,98930.64
2018-12-29T05:04:02.841Z,98927.67
2018-12-29T05:06:31.193Z,98934.26
2018-12-29T05:08:59.465Z,98923.52
2018-12-29T05:11:27.780Z,98926.52
2018-12-29T05:13:56.076Z,98930.30
2018-12-29T05:16:24.355Z,98939.61
2018-12-29T05:18:52.597Z,98931.53
2018-12-29T05:21:20.860Z,98933.80
2018-12-29T05:23:49.129Z,98930.09
2018-12-29T05:26:17.390Z,98933.44
2018-12-29T05:28:45.664Z,98937.02
2018-12-29T05:31:13.901Z,98933.64
2018-12-29T05:33:42.306Z,98928.23
2018-12-29T05:36:10.668Z,98937.75
2018-12-29T05:38:38.937Z,98955.87
2018-12-29T05:41:07.236Z,98279.17
2018-12-29T05:43:35.611Z,98961.22
2018-12-29T05:46:03.871Z,98967.39
2018-12-29T05:48:32.118Z,98955.82
2018-12-29T05:51:00.394Z,98959.73
2018-12-29T05:53:28.666Z,98958.01
2018-12-29T05:55:56.962Z,98943.06
2018-12-29T05:58:25.207Z,98937.64
2018-12-29T06:00:53.463Z,98942.78
2018-12-29T06:03:21.726Z,98934.67
2018-12-29T06:05:49.980Z,98930.52
2018-12-29T06:08:18.316Z,98929.61
2018-12-29T06:10:46.571Z,98932.48
2018-12-29T06:13:14.839Z,98705.74
2018-12-29T06:15:43.108Z,98930.71
2018-12-29T06:18:11.369Z,98929.81
2018-12-29T06:20:39.619Z,98934.87
2018-12-29T06:23:07.937Z,98935.78
2018-12-29T06:25:36.213Z,98932.78
2018-12-29T06:28:04.544Z,98933.19
2018-12-29T06:30:32.797Z,98928.99
2018-12-29T06:33:01.068Z,98931.26
2018-12-29T06:35:29.375Z,98925.38
2018-12-29T06:37:57.631Z,98928.30
2018-12-29T06:40:25.914Z,98932.00
2018-12-29T06:42:54.166Z,98943.81
2018-12-29T06:45:22.451Z,98943.81
2018-12-29T06:47:50.708Z,98959.73
2018-12-29T06:50:18.992Z,98961.92
2018-12-29T06:52:47.271Z,98958.09
2018-12-29T06:55:15.552Z,98954.23
2018-12-29T06:57:47.256Z,98915.70
2018-12-29T07:00:15.684Z,98963.08
2018-12-29T07:02:44.027Z,98971.47
2018-12-29T07:05:12.412Z,98975.38
2018-12-29T07:07:40.720Z,98969.33
2018-12-29T07:10:09.033Z,98967.59
2018-12-29T07:12:37.405Z,98970.15
2018-12-29T07:15:05.941Z,98970.89
2018-12-29T07:17:34.206Z,98972.41
2018-12-29T07:20:02.496Z,98978.66
2018-12-29T07:22:30.794Z,98981.34
2018-12-29T07:24:59.064Z,98983.94
2018-12-29T07:27:27.402Z,98990.81
2018-12-29T07:29:55.660Z,98986.61
2018-12-29T07:32:23.951Z,98979.28
2018-12-29T07:34:55.211Z,98986.36
2018-12-29T07:37:23.539Z,98984.42
2018-12-29T07:39:54.911Z,98985.13
2018-12-29T07:42:23.161Z,98988.00
2018-12-29T07:44:51.417Z,98995.25
2018-12-29T07:47:19.677Z,98993.89
2018-12-29T07:49:47.923Z,99004.52
2018-12-29T07:52:16.203Z,98998.70
2018-12-29T07:54:44.504Z,99001.02
2018-12-29T07:57:12.819Z,99003.69
2018-12-29T07:59:41.138Z,98469.77
2018-12-29T08:02:09.492Z,99002.73
2018-12-29T08:04:37.806Z,99004.58
2018-12-29T08:07:06.126Z,99004.38
2018-12-29T08:09:34.378Z,99005.69
2018-12-29T08:12:02.672Z,99005.53
2018-12-29T08:14:30.946Z,99008.78
2018-12-29T08:16:59.186Z,99010.63
2018-12-29T08:19:27.436Z,99014.03
2018-12-29T08:21:55.692Z,99016.22
2018-12-29T08:24:23.943Z,99013.82
2018-12-29T08:26:52.291Z,99020.53
2018-12-29T08:29:20.529Z,99009.08
2018-12-29T08:31:48.778Z,99012.16
2018-12-29T08:34:17.021Z,99024.39
2018-12-29T08:36:45.277Z,99020.31
2018-12-29T08:39:13.546Z,99021.42
2018-12-29T08:41:41.791Z,99030.48
2018-12-29T08:44:10.030Z,99031.98
2018-12-29T08:46:38.281Z,99024.48
2018-12-29T08:49:06.518Z,99024.38
2018-12-29T08:51:34.798Z,99021.84
2018-12-29T08:54:03.050Z,99030.73
2018-12-29T08:56:31.289Z,99035.89
2018-12-29T08:58:59.538Z,99032.24
2018-12-29T09:01:27.808Z,99025.56
2018-12-29T09:03:56.077Z,99037.80
2018-12-29T09:06:25.238Z,99022.81
2018-12-29T09:08:53.480Z,99022.62
2018-12-29T09:11:21.733Z,99032.64
2018-12-29T09:13:49.980Z,99027.77
2018-12-29T09:16:18.250Z,99024.05
2018-12-29T09:18:49.847Z,99016.43
2018-12-29T09:21:16.468Z,99023.02
2018-12-29T09:23:44.706Z,99030.44
2018-12-29T09:26:12.958Z,99022.72
2018-12-29T09:28:41.224Z,99016.20
2018-12-29T09:31:09.474Z,99016.02
2018-12-29T09:33:37.719Z,99014.98
2018-12-29T09:36:05.964Z,99027.42
2018-12-29T09:38:34.230Z,99032.34
2018-12-29T09:41:02.504Z,99035.95
2018-12-29T09:43:30.753Z,99047.02
2018-12-29T09:45:59.009Z,99050.42
2018-12-29T09:48:27.285Z,99049.38
2018-12-29T09:50:55.535Z,99054.70
2018-12-29T09:53:23.783Z,99049.84
2018-12-29T09:55:52.028Z,99044.25
2018-12-29T09:58:20.274Z,99049.66
2018-12-29T10:00:48.518Z,99053.26
2018-12-29T10:03:16.786Z,99055.80
2018-12-29T10:05:45.038Z,99053.32
2018-12-29T10:08:13.280Z,99048.05
2018-12-29T10:10:41.531Z,99055.34
2018-12-29T10:13:09.777Z,99057.12
2018-12-29T10:15:38.049Z,99055.87
2018-12-29T10:18:06.303Z,99058.11
2018-12-29T10:20:34.542Z,99046.62
2018-12-29T10:23:02.789Z,99051.59
2018-12-29T10:25:31.035Z,99043.52
2018-12-29T10:27:59.307Z,99039.71
2018-12-29T10:30:27.553Z,99039.34
2018-12-29T10:32:55.833Z,99038.22
2018-12-29T10:35:24.072Z,98930.71
2018-12-29T10:37:52.322Z,99042.47
2018-12-29T10:40:20.583Z,99032.28
2018-12-29T10:42:48.827Z,99039.97
2018-12-29T10:45:17.107Z,99035.03
2018-12-29T10:47:45.344Z,99031.52
2018-12-29T10:50:13.591Z,99028.38
2018-12-29T10:52:41.879Z,99034.44
2018-12-29T10:55:10.387Z,99030.86
2018-12-29T10:57:38.631Z,99029.55
2018-12-29T11:00:09.630Z,99035.09
2018-12-29T11:02:37.883Z,99031.57
2018-12-29T11:05:07.568Z,99022.31
2018-12-29T11:07:35.853Z,99025.11
2018-12-29T11:10:05.724Z,99020.92
2018-12-29T11:12:33.937Z,99020.02
2018-12-29T11:15:02.285Z,99019.88
2018-12-29T11:17:30.618Z,99011.98
2018-12-29T11:19:58.919Z,99006.89
2018-12-29T11:22:27.210Z,99009.81
2018-12-29T11:24:55.479Z,99005.75
2018-12-29T11:27:23.799Z,99003.09
2018-12-29T11:29:52.083Z,99002.23
2018-12-29T11:32:20.435Z,99004.81
2018-12-29T11:34:48.761Z,99003.39
2018-12-29T11:37:17.100Z,99000.57
2018-12-29T11:39:45.366Z,99003.09
2018-12-29T11:42:13.651Z,98999.67
2018-12-29T11:44:41.902Z,99000.05
2018-12-29T11:47:10.201Z,98995.23
2018-12-29T11:49:38.452Z,98997.13
2018-12-29T11:52:06.707Z,98995.66
2018-12-29T11:54:34.949Z,98991.78
2018-12-29T11:57:03.197Z,98992.78
2018-12-29T11:59:31.467Z,98999.38
2018-12-29T12:01:59.713Z,98992.69
2018-12-29T12:04:27.963Z,98995.89
2018-12-29T12:06:56.603Z,98989.63
2018-12-29T12:09:24.850Z,98980.86
2018-12-29T12:11:53.124Z,98982.48
2018-12-29T12:14:21.364Z,98987.45
2018-12-29T12:16:51.365Z,98979.33
2018-12-29T12:19:19.982Z,98980.25
2018-12-29T12:21:48.222Z,98975.38
2018-12-29T12:24:16.500Z,98967.59
2018-12-29T12:26:44.818Z,98967.42
2018-12-29T12:29:13.060Z,98965.70
2018-12-29T12:31:41.488Z,98967.80
2018-12-29T12:34:09.732Z,98959.70
2018-12-29T12:36:38.379Z,98963.61
2018-12-29T12:39:07.091Z,98963.27
2018-12-29T12:41:35.507Z,98968.42
2018-12-29T12:44:04.062Z,98968.27
2018-12-29T12:46:32.302Z,98969.85
2018-12-29T12:49:00.849Z,98965.98
2018-12-29T12:51:29.185Z,98962.65
2018-12-29T12:53:57.418Z,98956.13
2018-12-29T12:56:25.668Z,98951.39
2018-12-29T12:58:53.913Z,98953.20
2018-12-29T13:01:22.562Z,98956.44
2018-12-29T13:03:50.809Z,98950.95
2018-12-29T13:06:19.051Z,98955.24
2018-12-29T13:08:47.306Z,98955.96
2018-12-29T13:11:15.552Z,98948.37
2018-12-29T13:13:44.100Z,98944.31
2018-12-29T13:16:12.349Z,98944.27
2018-12-29T13:18:40.591Z,98940.73
2018-12-29T13:21:08.891Z,98949.46
2018-12-29T13:23:37.268Z,98941.83
2018-12-29T13:26:06.073Z,98944.88
2018-12-29T13:28:34.326Z,98947.55
2018-12-29T13:31:02.961Z,98951.23
2018-12-29T13:33:31.298Z,98952.84
2018-12-29T13:35:59.899Z,98944.50
2018-12-29T13:38:28.517Z,98940.06
2018-12-29T13:40:57.134Z,98935.06
2018-12-29T13:43:25.381Z,98940.73
2018-12-29T13:45:54.036Z,98939.13
2018-12-29T13:48:22.271Z,98934.01
2018-12-29T13:50:51.154Z,98938.45
2018-12-29T13:53:19.394Z,98728.17
2018-12-29T13:55:49.299Z,98941.11
2018-12-29T13:58:17.718Z,98938.45
2018-12-29T14:00:46.366Z,98926.80
2018-12-29T14:03:14.685Z,98930.44
2018-12-29T14:05:43.363Z,98924.91
2018-12-29T14:08:11.610Z,98930.24
2018-12-29T14:10:40.251Z,98921.19
2018-12-29T14:13:08.731Z,98917.09
2018-12-29T14:15:36.995Z,98912.50
2018-12-29T14:18:05.314Z,98912.16
2018-12-29T14:20:33.570Z,98910.92
2018-12-29T14:23:01.821Z,98907.54
2018-12-29T14:25:30.232Z,98901.00
2018-12-29T14:27:58.475Z,98899.95
2018-12-29T14:30:26.739Z,98898.52
2018-12-29T14:32:54.989Z,98902.23
2018-12-29T14:35:23.231Z,98898.86
2018-12-29T14:37:51.579Z,98901.71
2018-12-29T14:40:19.830Z,98901.53
2018-12-29T14:42:48.164Z,98898.52
2018-12-29T14:45:16.422Z,98902.77
2018-12-29T14:47:44.659Z,98901.53
2018-12-29T14:50:12.995Z,98907.88
2018-12-29T14:52:42.710Z,98904.64
2018-12-29T14:55:11.166Z,98898.30
2018-12-29T14:57:39.458Z,98904.83
2018-12-29T15:00:08.265Z,98905.50
2018-12-29T15:02:36.545Z,98896.48
2018-12-29T15:05:05.299Z,98898.30
2018-12-29T15:07:33.611Z,98895.32
2018-12-29T15:10:01.884Z,98898.67
2018-12-29T15:12:30.307Z,98898.14
2018-12-29T15:14:58.859Z,98902.58
2018-12-29T15:17:27.168Z,98897.62
2018-12-29T15:19:55.473Z,98892.09
2018-12-29T15:22:23.838Z,98888.52
2018-12-29T15:24:52.083Z,98888.89
2018-12-29T15:27:20.343Z,98887.09
2018-12-29T15:29:48.593Z,98884.09
2018-12-29T15:32:17.166Z,98890.81
2018-12-29T15:34:47.123Z,98876.64
2018-12-29T15:37:15.420Z,98869.73
2018-12-29T15:39:43.694Z,98871.56
2018-12-29T15:42:11.966Z,98880.25
2018-12-29T15:44:40.349Z,98883.22
2018-12-29T15:47:10.738Z,98886.45
2018-12-29T15:49:39.038Z,98892.43
2018-12-29T15:52:07.289Z,98890.52
2018-12-29T15:54:36.207Z,98879.72
2018-12-29T15:57:04.603Z,98884.53
2018-12-29T15:59:32.906Z,98875.47
2018-12-29T16:02:01.186Z,98877.77
2018-12-29T16:04:29.458Z,98867.13
2018-12-29T16:06:57.743Z,98865.89
2018-12-29T16:09:26.287Z,98860.93
2018-12-29T16:11:55.045Z,98857.73
2018-12-29T16:14:23.335Z,98853.30
2018-12-29T16:16:51.902Z,98845.86
2018-12-29T16:19:20.189Z,98835.94
2018-12-29T16:21:48.475Z,98829.52
2018-12-29T16:24:16.867Z,98820.83
2018-12-29T16:26:45.182Z,98804.71
2018-12-29T16:29:13.460Z,98807.72
2018-12-29T16:31:41.708Z,98800.27
2018-12-29T16:34:10.333Z,98805.39
2018-12-29T16:36:41.426Z,98815.53
2018-12-29T16:39:09.739Z,98804.37
2018-12-29T16:41:37.994Z,98795.91
2018-12-29T16:44:06.312Z,98793.05
2018-12-29T16:46:35.006Z,98787.03
2018-12-29T16:49:06.838Z,98794.84
2018-12-29T16:51:33.339Z,98785.08
2018-12-29T16:54:01.669Z,98797.86
2018-12-29T16:56:33.147Z,98797.14
2018-12-29T16:59:01.407Z,98793.23
2018-12-29T17:01:30.259Z,98796.46
2018-12-29T17:04:01.576Z,98794.29
2018-12-29T17:06:30.228Z,98798.91
2018-12-29T17:08:58.521Z,98803.72
2018-12-29T17:11:26.792Z,98807.97
2018-12-29T17:13:55.155Z,98809.36
2018-12-29T17:16:23.462Z,98809.92
2018-12-29T17:18:51.802Z,98826.54
2018-12-29T17:21:20.037Z,98818.54
2018-12-29T17:23:48.305Z,98813.58
2018-12-29T17:26:16.559Z,98823.12
2018-12-29T17:28:44.809Z,98815.50
2018-12-29T17:31:13.237Z,98815.98
2018-12-29T17:33:41.486Z,98801.27
2018-12-29T17:36:09.758Z,98794.53
2018-12-29T17:38:38.006Z,98792.20
2018-12-29T17:41:06.546Z,98790.94
2018-12-29T17:43:34.798Z,98796.57
2018-12-29T17:46:03.051Z,98795.52
2018-12-29T17:48:31.327Z,98808.10
2018-12-29T17:50:59.589Z,98793.94
2018-12-29T17:53:28.118Z,98793.38
2018-12-29T17:55:56.389Z,98791.42
2018-12-29T17:58:24.631Z,98784.81
2018-12-29T18:00:52.878Z,98777.19
2018-12-29T18:03:21.122Z,98762.80
2018-12-29T18:05:49.370Z,98764.23
2018-12-29T18:08:17.619Z,98769.86
2018-12-29T18:10:45.862Z,98760.63
2018-12-29T18:13:14.137Z,98761.00
2018-12-29T18:15:42.381Z,98760.81
2018-12-29T18:18:10.633Z,98756.05
2018-12-29T18:20:39.270Z,98751.23
2018-12-29T18:23:07.519Z,98739.52
2018-12-29T18:25:35.766Z,98726.56
2018-12-29T18:28:04.019Z,98726.53
2018-12-29T18:30:32.580Z,98715.48
2018-12-29T18:33:01.000Z,98719.87
2018-12-29T18:35:29.247Z,98726.07
2018-12-29T18:37:57.491Z,98721.67
2018-12-29T18:40:25.741Z,98712.83
2018-12-29T18:42:53.984Z,98719.39
2018-12-29T18:45:22.238Z,98717.62
2018-12-29T18:47:50.512Z,98708.92
2018-12-29T18:50:18.764Z,98703.95
2018-12-29T18:52:47.015Z,98683.88
2018-12-29T18:55:15.261Z,98678.17
2018-12-29T18:57:43.885Z,98676.37
2018-12-29T19:00:12.200Z,98674.08
2018-12-29T19:02:40.449Z,98671.75
2018-12-29T19:05:08.699Z,98671.75
2018-12-29T19:07:36.980Z,98650.84
2018-12-29T19:10:06.641Z,98646.42
2018-12-29T19:12:34.924Z,98630.52
2018-12-29T19:15:03.235Z,98625.22
2018-12-29T19:17:31.858Z,98614.80
2018-12-29T19:20:00.608Z,98602.75
2018-12-29T19:22:28.907Z,98602.94
2018-12-29T19:24:57.581Z,98596.94
2018-12-29T19:27:25.928Z,98601.70
2018-12-29T19:29:54.204Z,98614.45
2018-12-29T19:32:22.573Z,98626.84
2018-12-29T19:34:51.328Z,98635.69
2018-12-29T19:37:19.646Z,98626.84
2018-12-29T19:39:48.164Z,98646.66
2018-12-29T19:42:16.441Z,98641.36
2018-12-29T19:44:44.719Z,98672.69
2018-12-29T19:47:13.340Z,98689.36
2018-12-29T19:49:41.679Z,98685.48
2018-12-29T19:52:10.210Z,98692.36
2018-12-29T19:54:38.482Z,98690.59
2018-12-29T19:57:07.179Z,98701.41
2018-12-29T19:59:35.813Z,98694.50
2018-12-29T20:02:04.057Z,98701.97
2018-12-29T20:04:32.323Z,98703.58
2018-12-29T20:07:00.763Z,98686.06
2018-12-29T20:09:29.031Z,98685.91
2018-12-29T20:11:57.438Z,98681.86
2018-12-29T20:14:25.686Z,98677.80
2018-12-29T20:16:53.995Z,98684.70
2018-12-29T20:19:22.264Z,98683.84
2018-12-29T20:21:50.628Z,98677.09
2018-12-29T20:24:18.968Z,98684.00
2018-12-29T20:26:47.222Z,98683.84
2018-12-29T20:29:15.540Z,98676.78
2018-12-29T20:31:43.799Z,98670.22
2018-12-29T20:34:12.094Z,98642.59
2018-12-29T20:36:40.340Z,98515.94
2018-12-29T20:39:08.599Z,98643.33
2018-12-29T20:41:36.957Z,98644.58
2018-12-29T20:44:05.205Z,98642.13
2018-12-29T20:46:33.638Z,98633.98
2018-12-29T20:49:01.914Z,98631.16
2018-12-29T20:51:30.642Z,98628.84
2018-12-29T20:53:58.938Z,98615.05
2018-12-29T20:56:27.240Z,98598.95
2018-12-29T20:58:55.658Z,98583.56
2018-12-29T21:01:24.008Z,98575.75
2018-12-29T21:03:52.266Z,98560.02
2018-12-29T21:06:20.859Z,98548.31
2018-12-29T21:08:49.176Z,98546.52
2018-12-29T21:11:17.435Z,98525.66
2018-12-29T21:13:45.750Z,98512.53
2018-12-29T21:16:16.645Z,98516.25
2018-12-29T21:18:44.973Z,98507.55
2018-12-29T21:21:13.265Z,98501.88
2018-12-29T21:23:41.643Z,98487.20
2018-12-29T21:26:09.942Z,98494.30
2018-12-29T21:28:38.236Z,98488.81
2018-12-29T21:31:06.529Z,98480.14
2018-12-29T21:33:35.194Z,98484.73
2018-12-29T21:36:04.790Z,98467.75
2018-12-29T21:38:36.255Z,98249.64
2018-12-29T21:41:04.518Z,98465.11
2018-12-29T21:43:32.774Z,98457.14
2018-12-29T21:46:01.237Z,98449.55
2018-12-29T21:48:29.519Z,98441.23
2018-12-29T21:50:57.789Z,98434.69
2018-12-29T21:53:26.139Z,98429.55
2018-12-29T21:55:54.411Z,98425.67
2018-12-29T21:58:22.681Z,98429.91
2018-12-29T22:00:51.262Z,98425.86
2018-12-29T22:03:19.565Z,98429.58
2018-12-29T22:06:10.795Z,98425.14
2018-12-29T22:08:40.789Z,98428.70
2018-12-29T22:11:13.924Z,98430.28
2018-12-29T22:13:42.360Z,98420.89
2018-12-29T22:16:10.622Z,98429.58
2018-12-29T22:18:39.012Z,98435.94
2018-12-29T22:21:07.306Z,98440.39
2018-12-29T22:23:35.853Z,98444.63
2018-12-29T22:26:04.114Z,98441.80
2018-12-29T22:28:35.127Z,98433.81
2018-12-29T22:31:03.427Z,98436.30
2018-12-29T22:33:37.918Z,98435.61
2018-12-29T22:36:06.503Z,98428.86
2018-12-29T22:38:34.823Z,98424.97
2018-12-29T22:41:03.082Z,98418.09
2018-12-29T22:43:31.343Z,98415.95
2018-12-29T22:45:59.684Z,98421.25
2018-12-29T22:48:27.962Z,98411.53
2018-12-29T22:50:56.335Z,98405.34
2018-12-29T22:53:24.704Z,98404.78
2018-12-29T22:55:54.653Z,98399.14
2018-12-29T22:58:23.038Z,98397.55
2018-12-29T23:00:51.298Z,98383.73
2018-12-29T23:03:19.698Z,98384.95
2018-12-29T23:06:00.204Z,98379.84
2018-12-29T23:08:28.599Z,98379.47
2018-12-29T23:10:57.360Z,98367.44
2018-12-29T23:13:25.709Z,98355.59
2018-12-29T23:15:54.107Z,98350.11
2018-12-29T23:18:22.363Z,98342.68
2018-12-29T23:20:50.721Z,98330.27
2018-12-29T23:23:18.998Z,98334.71
2018-12-29T23:25:47.809Z,98336.45
2018-12-29T23:28:17.791Z,98328.68
2018-12-29T23:30:46.040Z,98328.52
2018-12-29T23:33:14.392Z,98329.73
2018-12-29T23:35:42.668Z,98331.71
2018-12-29T23:38:11.391Z,98320.53
2018-12-29T23:40:39.633Z,98323.91
2018-12-29T23:43:07.940Z,98334.88
2018-12-29T23:45:36.479Z,98327.80
2018-12-29T23:48:04.818Z,98326.20
2018-12-29T23:50:33.275Z,98329.39
2018-12-29T23:53:01.818Z,98330.81
2018-12-29T23:55:30.707Z,97844.80
2018-12-29T23:57:59.203Z,98330.09
